Time,TemperatureF,DewpointF,PressureIn,WindDirection,WindDirectionDegrees,WindSpeedMPH,WindSpeedGustMPH,Humidity,HourlyPrecipIn,Conditions,Clouds,dailyrainin,SoftwareType,DateUTC
2013-05-29 00:00:00,61.4,59.7,30.17,WSW,252,0.0,1.0,94,0.00,,OVC055,0.00,VWS V14.01,2013-05-29 04:00:00,
2013-05-29 00:01:00,61.4,59.7,30.18,WSW,252,0.0,0.0,94,0.00,,OVC055,0.00,VWS V14.01,2013-05-29 04:01:00,
2013-05-29 00:06:00,61.4,59.7,30.17,WSW,252,0.0,0.0,94,0.00,,OVC055,0.00,VWS V14.01,2013-05-29 04:06:00,
2013-05-29 00:11:00,61.3,59.6,30.17,WSW,252,0.0,0.0,94,0.00,,OVC055,0.00,VWS V14.01,2013-05-29 04:11:00,
2013-05-29 00:16:00,61.1,59.4,30.17,WSW,252,0.0,0.0,94,0.00,,OVC055,0.00,VWS V14.01,2013-05-29 04:16:00,
2013-05-29 00:21:00,61.0,59.6,30.17,WSW,252,0.0,0.0,95,0.00,,OVC055,0.00,VWS V14.01,2013-05-29 04:21:00,
2013-05-29 00:26:00,60.8,59.4,30.17,WSW,252,0.0,0.0,95,0.00,,OVC055,0.00,VWS V14.01,2013-05-29 04:26:00,
2013-05-29 00:30:00,60.7,59.3,30.17,WSW,252,0.0,0.0,95,0.00,,OVC055,0.00,VWS V14.01,2013-05-29 04:30:00,
2013-05-29 00:31:00,60.7,59.3,30.17,WSW,252,0.0,0.0,95,0.00,,OVC055,0.00,VWS V14.01,2013-05-29 04:31:00,
2013-05-29 00:36:00,60.5,59.1,30.17,WSW,252,0.0,0.0,95,0.00,,OVC055,0.00,VWS V14.01,2013-05-29 04:36:00,
2013-05-29 00:41:00,60.3,58.9,30.17,WSW,252,0.0,0.0,95,0.00,,OVC055,0.00,VWS V14.01,2013-05-29 04:41:00,
2013-05-29 00:46:00,60.2,59.1,30.17,WSW,252,0.0,1.0,96,0.00,,OVC055,0.00,VWS V14.01,2013-05-29 04:46:00,
2013-05-29 00:51:00,60.1,59.0,30.17,WSW,252,0.0,2.0,96,0.00,,OVC055,0.00,VWS V14.01,2013-05-29 04:51:00,
2013-05-29 00:56:00,60.1,59.2,30.17,WSW,252,0.0,2.0,97,0.00,,OVC055,0.00,VWS V14.01,2013-05-29 04:56:00,
2013-05-29 01:00:00,60.0,59.2,30.17,WSW,252,0.0,2.0,97,0.00,,OVC055,0.00,VWS V14.01,2013-05-29 05:00:00,
2013-05-29 01:01:00,60.0,59.2,30.17,WSW,252,0.0,0.0,97,0.00,,OVC055,0.00,VWS V14.01,2013-05-29 05:01:00,
2013-05-29 01:06:00,59.9,59.0,30.17,WSW,252,0.0,0.0,97,0.00,,OVC055,0.00,VWS V14.01,2013-05-29 05:06:00,
2013-05-29 01:11:00,59.8,59.0,30.16,WSW,252,0.0,1.0,97,0.00,,OVC055,0.00,VWS V14.01,2013-05-29 05:11:00,
2013-05-29 01:16:00,59.8,59.0,30.16,WSW,252,0.0,1.0,97,0.00,,OVC055,0.00,VWS V14.01,2013-05-29 05:16:00,
2013-05-29 01:21:00,59.8,59.0,30.16,WSW,252,0.0,1.0,97,0.00,,OVC055,0.00,VWS V14.01,2013-05-29 05:21:00,
2013-05-29 01:26:00,59.9,59.0,30.16,WSW,252,0.0,1.0,97,0.00,,OVC055,0.00,VWS V14.01,2013-05-29 05:26:00,
2013-05-29 01:30:00,60.3,59.7,30.16,WSW,252,0.0,1.0,98,0.00,,OVC055,0.00,VWS V14.01,2013-05-29 05:30:00,
2013-05-29 01:35:00,61.1,60.5,30.17,SW,236,0.0,4.0,98,0.00,,OVC055,0.00,VWS V14.01,2013-05-29 05:35:00,
2013-05-29 01:40:00,61.6,60.7,30.17,SW,236,0.0,4.0,97,0.00,,OVC055,0.00,VWS V14.01,2013-05-29 05:40:00,
2013-05-29 01:45:00,61.9,60.8,30.17,SW,236,0.0,4.0,96,0.00,,OVC055,0.00,VWS V14.01,2013-05-29 05:45:00,
2013-05-29 01:50:00,62.3,60.8,30.17,SW,236,0.0,4.0,95,0.00,,OVC055,0.00,VWS V14.01,2013-05-29 05:50:00,
2013-05-29 01:55:00,62.5,60.8,30.17,SW,236,0.0,4.0,94,0.00,,OVC055,0.00,VWS V14.01,2013-05-29 05:55:00,
2013-05-29 02:00:00,62.7,61.0,30.16,SW,236,0.0,0.0,94,0.00,,OVC055,0.00,VWS V14.01,2013-05-29 06:00:00,
2013-05-29 02:05:00,62.8,60.8,30.16,SW,236,0.0,0.0,93,0.00,,OVC055,0.00,VWS V14.01,2013-05-29 06:05:00,
2013-05-29 02:10:00,62.9,60.8,30.16,SW,236,0.0,0.0,93,0.00,,OVC055,0.00,VWS V14.01,2013-05-29 06:10:00,
2013-05-29 02:15:00,63.1,61.0,30.17,SW,236,0.0,0.0,93,0.00,,OVC055,0.00,VWS V14.01,2013-05-29 06:15:00,
2013-05-29 02:20:00,63.2,61.2,30.16,SW,236,0.0,0.0,93,0.00,,OVC055,0.00,VWS V14.01,2013-05-29 06:20:00,
2013-05-29 02:25:00,63.2,61.2,30.16,SW,236,0.0,0.0,93,0.00,,OVC055,0.00,VWS V14.01,2013-05-29 06:25:00,
2013-05-29 02:30:00,63.3,61.5,30.17,SW,236,0.0,1.0,94,0.00,,OVC055,0.00,VWS V14.01,2013-05-29 06:30:00,
2013-05-29 02:35:00,63.3,61.5,30.17,SW,231,0.0,2.0,94,0.00,,OVC055,0.00,VWS V14.01,2013-05-29 06:35:00,
2013-05-29 02:40:00,63.4,61.3,30.17,SW,230,0.0,2.0,93,0.00,,OVC055,0.00,VWS V14.01,2013-05-29 06:40:00,
2013-05-29 02:45:00,63.7,61.3,30.17,SW,230,0.0,2.0,92,0.00,,OVC055,0.00,VWS V14.01,2013-05-29 06:45:00,
2013-05-29 02:50:00,64.0,61.3,30.17,West,274,1.0,5.0,91,0.00,,OVC055,0.00,VWS V14.01,2013-05-29 06:50:00,
2013-05-29 02:55:00,64.2,61.5,30.17,SSE,161,2.0,5.0,91,0.00,,OVC055,0.00,VWS V14.01,2013-05-29 06:55:00,
2013-05-29 03:00:00,64.4,61.4,30.17,SSW,200,0.0,0.0,90,0.00,,OVC055,0.00,VWS V14.01,2013-05-29 07:00:00,
2013-05-29 03:05:00,64.4,61.4,30.17,SSW,201,0.0,3.0,90,0.00,,OVC055,0.00,VWS V14.01,2013-05-29 07:05:00,
2013-05-29 03:10:00,64.3,61.3,30.17,SSW,201,0.0,3.0,90,0.00,,OVC055,0.00,VWS V14.01,2013-05-29 07:10:00,
2013-05-29 03:15:00,64.1,61.1,30.17,West,271,0.0,3.0,90,0.00,,OVC055,0.00,VWS V14.01,2013-05-29 07:15:00,
2013-05-29 03:20:00,63.9,60.9,30.17,West,271,1.0,3.0,90,0.00,,OVC055,0.00,VWS V14.01,2013-05-29 07:20:00,
2013-05-29 03:25:00,63.8,61.1,30.17,SW,217,1.0,3.0,91,0.00,,OVC055,0.00,VWS V14.01,2013-05-29 07:25:00,
2013-05-29 03:30:00,63.6,60.9,30.17,SW,225,0.0,1.0,91,0.00,,OVC055,0.00,VWS V14.01,2013-05-29 07:30:00,
2013-05-29 03:35:00,63.5,60.8,30.17,SW,225,0.0,1.0,91,0.00,,OVC055,0.00,VWS V14.01,2013-05-29 07:35:00,
2013-05-29 03:40:00,63.4,60.7,30.17,SW,225,0.0,1.0,91,0.00,,OVC055,0.00,VWS V14.01,2013-05-29 07:40:00,
2013-05-29 03:45:00,63.1,60.7,30.17,SW,225,0.0,1.0,92,0.00,,OVC055,0.00,VWS V14.01,2013-05-29 07:45:00,
2013-05-29 03:50:00,62.9,60.5,30.18,SW,225,0.0,1.0,92,0.00,,OVC055,0.00,VWS V14.01,2013-05-29 07:50:00,
2013-05-29 03:55:00,62.7,60.3,30.17,SW,219,0.0,2.0,92,0.00,,OVC055,0.00,VWS V14.01,2013-05-29 07:55:00,
2013-05-29 04:00:00,62.6,60.2,30.18,SW,219,1.0,1.0,92,0.00,,OVC055,0.00,VWS V14.01,2013-05-29 08:00:00,
2013-05-29 04:05:00,62.6,60.2,30.18,SW,219,0.0,1.0,92,0.00,,OVC055,0.00,VWS V14.01,2013-05-29 08:05:00,
2013-05-29 04:10:00,62.6,60.2,30.18,SW,220,1.0,2.0,92,0.00,,OVC055,0.00,VWS V14.01,2013-05-29 08:10:00,
2013-05-29 04:15:00,62.5,59.8,30.18,WSW,251,2.0,4.0,91,0.00,,OVC055,0.00,VWS V14.01,2013-05-29 08:15:00,
2013-05-29 04:20:00,62.6,59.9,30.18,SSW,193,1.0,4.0,91,0.00,,OVC055,0.00,VWS V14.01,2013-05-29 08:20:00,
2013-05-29 04:25:00,62.5,59.8,30.18,NNE,15,0.0,4.0,91,0.00,,OVC055,0.00,VWS V14.01,2013-05-29 08:25:00,
2013-05-29 04:30:00,62.4,60.0,30.18,SW,227,0.0,2.0,92,0.00,,OVC055,0.00,VWS V14.01,2013-05-29 08:30:00,
2013-05-29 04:35:00,62.2,59.8,30.18,SW,219,0.0,2.0,92,0.00,,OVC055,0.00,VWS V14.01,2013-05-29 08:35:00,
2013-05-29 04:40:00,62.0,59.7,30.18,SSW,207,0.0,2.0,92,0.00,,OVC055,0.00,VWS V14.01,2013-05-29 08:40:00,
2013-05-29 04:45:00,61.7,59.7,30.18,SSW,207,0.0,2.0,93,0.00,,OVC055,0.00,VWS V14.01,2013-05-29 08:45:00,
2013-05-29 04:50:00,61.4,59.4,30.18,SSW,207,0.0,2.0,93,0.00,,OVC055,0.00,VWS V14.01,2013-05-29 08:50:00,
2013-05-29 04:55:00,61.2,59.5,30.18,SSW,207,0.0,2.0,94,0.00,,OVC055,0.00,VWS V14.01,2013-05-29 08:55:00,
2013-05-29 05:00:00,60.9,59.2,30.18,SSW,207,0.0,1.0,94,0.00,,OVC055,0.00,VWS V14.01,2013-05-29 09:00:00,
2013-05-29 05:05:00,60.6,59.2,30.18,SSW,207,0.0,1.0,95,0.00,,OVC055,0.00,VWS V14.01,2013-05-29 09:05:00,
2013-05-29 05:10:00,60.5,59.1,30.18,SSW,207,0.0,1.0,95,0.00,,OVC055,0.00,VWS V14.01,2013-05-29 09:10:00,
2013-05-29 05:15:00,60.2,58.8,30.18,SSW,207,0.0,1.0,95,0.00,,OVC055,0.00,VWS V14.01,2013-05-29 09:15:00,
2013-05-29 05:20:00,60.0,58.9,30.18,SSW,207,0.0,1.0,96,0.00,,OVC055,0.00,VWS V14.01,2013-05-29 09:20:00,
2013-05-29 05:25:00,59.8,58.7,30.18,SSW,207,0.0,1.0,96,0.00,,OVC055,0.00,VWS V14.01,2013-05-29 09:25:00,
2013-05-29 05:30:00,59.6,58.8,30.17,SSW,207,0.0,0.0,97,0.00,,OVC055,0.00,VWS V14.01,2013-05-29 09:30:00,
2013-05-29 05:35:00,59.5,58.7,30.17,SSW,207,0.0,1.0,97,0.00,,OVC055,0.00,VWS V14.01,2013-05-29 09:35:00,
2013-05-29 05:40:00,59.5,58.7,30.17,SSW,207,0.0,1.0,97,0.00,,OVC055,0.00,VWS V14.01,2013-05-29 09:40:00,
2013-05-29 05:45:00,59.5,58.7,30.17,SSW,207,0.0,1.0,97,0.00,,OVC055,0.00,VWS V14.01,2013-05-29 09:45:00,
2013-05-29 05:50:00,59.4,58.5,30.17,SSW,207,0.0,1.0,97,0.00,,OVC055,0.00,VWS V14.01,2013-05-29 09:50:00,
2013-05-29 05:55:00,59.3,58.5,30.17,SSW,207,0.0,1.0,97,0.00,,OVC055,0.00,VWS V14.01,2013-05-29 09:55:00,
2013-05-29 06:00:00,59.2,58.3,30.18,SSW,207,0.0,0.0,97,0.00,,OVC055,0.00,VWS V14.01,2013-05-29 10:00:00,
2013-05-29 06:05:00,59.1,58.2,30.18,SSW,207,0.0,0.0,97,0.00,,OVC055,0.00,VWS V14.01,2013-05-29 10:05:00,
2013-05-29 06:10:00,58.9,58.0,30.18,SSW,207,0.0,1.0,97,0.00,,OVC055,0.00,VWS V14.01,2013-05-29 10:10:00,
2013-05-29 06:15:00,58.8,58.2,30.18,SSW,207,0.0,1.0,98,0.00,,OVC055,0.00,VWS V14.01,2013-05-29 10:15:00,
2013-05-29 06:20:00,58.7,58.1,30.19,SSW,207,0.0,1.0,98,0.00,,OVC055,0.00,VWS V14.01,2013-05-29 10:20:00,
2013-05-29 06:25:00,58.6,58.0,30.19,SSW,207,0.0,1.0,98,0.00,,OVC055,0.00,VWS V14.01,2013-05-29 10:25:00,
2013-05-29 06:30:00,58.6,58.0,30.19,SSW,207,0.0,0.0,98,0.00,,OVC055,0.00,VWS V14.01,2013-05-29 10:30:00,
2013-05-29 06:35:00,58.6,58.0,30.19,SSW,207,0.0,0.0,98,0.00,,OVC055,0.00,VWS V14.01,2013-05-29 10:35:00,
2013-05-29 06:40:00,58.7,58.1,30.19,SSW,207,0.0,0.0,98,0.00,,OVC055,0.00,VWS V14.01,2013-05-29 10:40:00,
2013-05-29 06:45:00,58.6,58.0,30.19,SSW,207,0.0,0.0,98,0.00,,OVC055,0.00,VWS V14.01,2013-05-29 10:45:00,
2013-05-29 06:50:00,58.4,57.8,30.19,SSW,207,0.0,0.0,98,0.00,,OVC055,0.00,VWS V14.01,2013-05-29 10:50:00,
2013-05-29 06:55:00,58.4,57.8,30.19,SSW,207,0.0,0.0,98,0.00,,OVC055,0.00,VWS V14.01,2013-05-29 10:55:00,
2013-05-29 07:00:00,58.5,58.2,30.19,SSW,207,0.0,1.0,99,0.00,,OVC055,0.00,VWS V14.01,2013-05-29 11:00:00,
2013-05-29 07:05:00,58.6,58.3,30.19,SSW,207,0.0,1.0,99,0.00,,OVC055,0.00,VWS V14.01,2013-05-29 11:05:00,
2013-05-29 07:10:00,58.6,58.0,30.19,SSW,207,0.0,1.0,98,0.00,,OVC055,0.00,VWS V14.01,2013-05-29 11:10:00,
2013-05-29 07:15:00,58.6,58.0,30.19,NNW,339,1.0,1.0,98,0.00,,OVC055,0.00,VWS V14.01,2013-05-29 11:15:00,
2013-05-29 07:20:00,58.7,58.1,30.19,NNW,339,0.0,2.0,98,0.00,,OVC055,0.00,VWS V14.01,2013-05-29 11:20:00,
2013-05-29 07:25:00,58.8,58.2,30.19,NNW,339,0.0,2.0,98,0.00,,OVC055,0.00,VWS V14.01,2013-05-29 11:25:00,
2013-05-29 07:30:00,59.0,58.4,30.19,NNW,339,0.0,0.0,98,0.00,,OVC055,0.00,VWS V14.01,2013-05-29 11:30:00,
2013-05-29 07:35:00,59.2,58.9,30.19,NNW,339,0.0,0.0,99,0.00,,OVC055,0.00,VWS V14.01,2013-05-29 11:35:00,
2013-05-29 07:40:00,59.4,59.1,30.20,NNW,339,0.0,0.0,99,0.00,,OVC055,0.00,VWS V14.01,2013-05-29 11:40:00,
2013-05-29 07:45:00,59.8,59.5,30.20,NNW,339,0.0,0.0,99,0.00,,OVC055,0.00,VWS V14.01,2013-05-29 11:45:00,
2013-05-29 07:50:00,60.2,59.9,30.20,NNW,339,0.0,0.0,99,0.00,,OVC055,0.00,VWS V14.01,2013-05-29 11:50:00,
2013-05-29 07:55:00,60.7,60.1,30.20,NNW,339,0.0,1.0,98,0.00,,OVC055,0.00,VWS V14.01,2013-05-29 11:55:00,
2013-05-29 08:00:00,61.2,60.3,30.20,NNW,339,0.0,0.0,97,0.00,,OVC055,0.00,VWS V14.01,2013-05-29 12:00:00,
2013-05-29 08:05:00,61.8,60.9,30.20,NNW,332,0.0,1.0,97,0.00,,OVC055,0.00,VWS V14.01,2013-05-29 12:05:00,
2013-05-29 08:10:00,62.6,61.7,30.20,NNW,332,0.0,1.0,97,0.00,,OVC055,0.00,VWS V14.01,2013-05-29 12:10:00,
2013-05-29 08:15:00,63.7,62.0,30.20,NNW,340,1.0,3.0,94,0.00,,OVC055,0.00,VWS V14.01,2013-05-29 12:15:00,
2013-05-29 08:20:00,64.3,61.9,30.20,NNW,343,1.0,3.0,92,0.00,,OVC055,0.00,VWS V14.01,2013-05-29 12:20:00,
2013-05-29 08:25:00,64.8,62.1,30.20,North,355,1.0,3.0,91,0.00,,OVC055,0.00,VWS V14.01,2013-05-29 12:25:00,
2013-05-29 08:30:00,65.1,62.1,30.20,North,355,1.0,2.0,90,0.00,,OVC055,0.00,VWS V14.01,2013-05-29 12:30:00,
2013-05-29 08:35:00,65.6,62.3,30.20,North,360,1.0,2.0,89,0.00,,OVC055,0.00,VWS V14.01,2013-05-29 12:35:00,
2013-05-29 08:40:00,66.1,62.5,30.20,North,360,2.0,3.0,88,0.00,,OVC055,0.00,VWS V14.01,2013-05-29 12:40:00,
2013-05-29 08:45:00,66.6,62.6,30.20,North,360,1.0,3.0,87,0.00,,OVC055,0.00,VWS V14.01,2013-05-29 12:45:00,
2013-05-29 08:50:00,67.1,62.8,30.20,North,360,1.0,3.0,86,0.00,,OVC055,0.00,VWS V14.01,2013-05-29 12:50:00,
2013-05-29 08:54:00,67.4,62.4,30.21,North,360,0.0,3.0,84,0.00,,OVC055,0.00,VWS V14.01,2013-05-29 12:54:00,
2013-05-29 08:59:00,68.0,62.7,30.20,North,5,1.0,1.0,83,0.00,,OVC055,0.00,VWS V14.01,2013-05-29 12:59:00,
2013-05-29 09:00:00,67.8,62.8,30.20,North,5,0.0,3.0,84,0.00,,OVC055,0.00,VWS V14.01,2013-05-29 13:00:00,
2013-05-29 09:04:00,68.6,62.9,30.21,North,5,2.0,3.0,82,0.00,,OVC055,0.00,VWS V14.01,2013-05-29 13:04:00,
2013-05-29 09:09:00,68.8,62.7,30.21,North,5,0.0,3.0,81,0.00,,OVC055,0.00,VWS V14.01,2013-05-29 13:09:00,
2013-05-29 09:14:00,69.2,62.8,30.21,NNE,15,1.0,3.0,80,0.00,,OVC055,0.00,VWS V14.01,2013-05-29 13:14:00,
2013-05-29 09:19:00,69.4,63.0,30.21,North,360,2.0,3.0,80,0.00,,OVC055,0.00,VWS V14.01,2013-05-29 13:19:00,
2013-05-29 09:24:00,69.6,63.2,30.21,North,5,2.0,3.0,80,0.00,,OVC055,0.00,VWS V14.01,2013-05-29 13:24:00,
2013-05-29 09:29:00,69.6,63.2,30.22,North,5,0.0,0.0,80,0.00,,OVC055,0.00,VWS V14.01,2013-05-29 13:29:00,
2013-05-29 09:30:00,69.5,62.7,30.21,North,5,0.0,3.0,79,0.00,,OVC055,0.00,VWS V14.01,2013-05-29 13:30:00,
2013-05-29 09:34:00,69.9,62.7,30.22,North,5,2.0,3.0,78,0.00,,OVC055,0.00,VWS V14.01,2013-05-29 13:34:00,
2013-05-29 09:39:00,70.3,63.5,30.22,North,5,2.0,3.0,79,0.00,,OVC055,0.00,VWS V14.01,2013-05-29 13:39:00,
2013-05-29 09:44:00,70.5,63.7,30.22,North,9,2.0,3.0,79,0.00,,OVC055,0.00,VWS V14.01,2013-05-29 13:44:00,
2013-05-29 09:49:00,70.8,64.0,30.21,North,5,1.0,3.0,79,0.00,,OVC055,0.00,VWS V14.01,2013-05-29 13:49:00,
2013-05-29 09:54:00,71.1,64.6,30.21,North,9,2.0,3.0,80,0.00,,OVC055,0.00,VWS V14.01,2013-05-29 13:54:00,
2013-05-29 09:59:00,71.5,64.3,30.21,NNE,21,2.0,3.0,78,0.00,,OVC055,0.00,VWS V14.01,2013-05-29 13:59:00,
2013-05-29 10:00:00,71.5,64.3,30.21,NNE,21,2.0,3.0,78,0.00,,OVC055,0.00,VWS V14.01,2013-05-29 14:00:00,
2013-05-29 10:04:00,71.9,65.0,30.21,NE,53,0.0,4.0,79,0.00,,OVC055,0.00,VWS V14.01,2013-05-29 14:04:00,
2013-05-29 10:09:00,72.5,64.1,30.21,NE,54,2.0,4.0,75,0.00,,OVC055,0.00,VWS V14.01,2013-05-29 14:09:00,
2013-05-29 10:14:00,73.3,65.3,30.21,NNE,15,0.0,4.0,76,0.00,,OVC055,0.00,VWS V14.01,2013-05-29 14:14:00,
2013-05-29 10:19:00,73.5,65.1,30.21,NNE,16,2.0,4.0,75,0.00,,OVC055,0.00,VWS V14.01,2013-05-29 14:19:00,
2013-05-29 10:24:00,73.8,64.6,30.21,NNE,33,2.0,4.0,73,0.00,,OVC055,0.00,VWS V14.01,2013-05-29 14:24:00,
2013-05-29 10:29:00,73.9,63.9,30.20,NNE,30,0.0,0.0,71,0.00,,OVC055,0.00,VWS V14.01,2013-05-29 14:29:00,
2013-05-29 10:30:00,73.8,64.2,30.20,NNE,30,0.0,4.0,72,0.00,,OVC055,0.00,VWS V14.01,2013-05-29 14:30:00,
2013-05-29 10:34:00,74.8,64.4,30.20,NNE,23,3.0,4.0,70,0.00,,OVC055,0.00,VWS V14.01,2013-05-29 14:34:00,
2013-05-29 10:39:00,74.8,65.6,30.20,North,355,4.0,4.0,73,0.00,,OVC055,0.00,VWS V14.01,2013-05-29 14:39:00,
2013-05-29 10:44:00,75.7,66.0,30.20,North,360,1.0,4.0,72,0.00,,OVC055,0.00,VWS V14.01,2013-05-29 14:44:00,
2013-05-29 10:49:00,76.6,65.3,30.20,SSE,165,0.0,4.0,68,0.00,,OVC055,0.00,VWS V14.01,2013-05-29 14:49:00,
2013-05-29 10:54:00,76.7,64.5,30.19,West,275,0.0,4.0,66,0.00,,OVC055,0.00,VWS V14.01,2013-05-29 14:54:00,
2013-05-29 10:59:00,77.0,65.2,30.20,NNW,336,0.0,2.0,67,0.00,,OVC055,0.00,VWS V14.01,2013-05-29 14:59:00,
2013-05-29 11:00:00,77.0,66.1,30.19,NNW,336,2.0,4.0,69,0.00,,OVC055,0.00,VWS V14.01,2013-05-29 15:00:00,
2013-05-29 11:04:00,76.9,64.7,30.20,NNE,15,0.0,4.0,66,0.00,,OVC055,0.00,VWS V14.01,2013-05-29 15:04:00,
2013-05-29 11:09:00,77.1,63.1,30.20,SE,136,4.0,7.0,62,0.00,,OVC055,0.00,VWS V14.01,2013-05-29 15:09:00,
2013-05-29 11:14:00,76.8,63.7,30.20,SE,146,1.0,7.0,64,0.00,,OVC055,0.00,VWS V14.01,2013-05-29 15:14:00,
2013-05-29 11:19:00,77.4,63.4,30.20,SE,146,1.0,7.0,62,0.00,,OVC055,0.00,VWS V14.01,2013-05-29 15:19:00,
2013-05-29 11:24:00,78.1,64.5,30.20,NE,43,0.0,7.0,63,0.00,,OVC055,0.00,VWS V14.01,2013-05-29 15:24:00,
2013-05-29 11:29:00,78.4,64.3,30.20,NNW,348,1.0,2.0,62,0.00,,OVC055,0.00,VWS V14.01,2013-05-29 15:29:00,
2013-05-29 11:30:00,78.3,64.2,30.20,NNE,21,2.0,7.0,62,0.00,,OVC055,0.00,VWS V14.01,2013-05-29 15:30:00,
2013-05-29 11:34:00,78.5,64.0,30.20,North,350,1.0,4.0,61,0.00,,OVC055,0.00,VWS V14.01,2013-05-29 15:34:00,
2013-05-29 11:39:00,78.8,65.2,30.20,NE,34,2.0,4.0,63,0.00,,OVC055,0.00,VWS V14.01,2013-05-29 15:39:00,
2013-05-29 11:44:00,78.6,65.0,30.20,North,355,1.0,4.0,63,0.00,,OVC055,0.00,VWS V14.01,2013-05-29 15:44:00,
2013-05-29 11:49:00,78.9,65.7,30.20,NNE,32,4.0,4.0,64,0.00,,OVC055,0.00,VWS V14.01,2013-05-29 15:49:00,
2013-05-29 11:54:00,79.0,63.9,30.20,NE,49,0.0,5.0,60,0.00,,OVC055,0.00,VWS V14.01,2013-05-29 15:54:00,
2013-05-29 11:59:00,79.2,65.1,30.20,West,276,1.0,1.0,62,0.00,,OVC055,0.00,VWS V14.01,2013-05-29 15:59:00,
2013-05-29 12:00:00,79.2,65.1,30.20,West,274,1.0,5.0,62,0.00,,OVC055,0.00,VWS V14.01,2013-05-29 16:00:00,
2013-05-29 12:04:00,79.5,61.9,30.20,West,273,3.0,4.0,55,0.00,,OVC055,0.00,VWS V14.01,2013-05-29 16:04:00,
2013-05-29 12:09:00,79.7,62.1,30.20,WNW,295,0.0,4.0,55,0.00,,OVC055,0.00,VWS V14.01,2013-05-29 16:09:00,
2013-05-29 12:14:00,79.8,64.7,30.20,SW,215,3.0,4.0,60,0.00,,OVC055,0.00,VWS V14.01,2013-05-29 16:14:00,
2013-05-29 12:19:00,79.9,64.3,30.20,ESE,115,0.0,6.0,59,0.00,,OVC055,0.00,VWS V14.01,2013-05-29 16:19:00,
2013-05-29 12:24:00,80.5,65.3,30.20,NW,308,0.0,6.0,60,0.00,,OVC055,0.00,VWS V14.01,2013-05-29 16:24:00,
2013-05-29 12:29:00,80.6,64.0,30.20,North,5,1.0,2.0,57,0.00,,OVC055,0.00,VWS V14.01,2013-05-29 16:29:00,
2013-05-29 12:30:00,80.6,64.0,30.20,North,5,1.0,6.0,57,0.00,,OVC055,0.00,VWS V14.01,2013-05-29 16:30:00,
2013-05-29 12:34:00,80.7,63.6,30.20,SSW,198,1.0,3.0,56,0.00,,OVC055,0.00,VWS V14.01,2013-05-29 16:34:00,
2013-05-29 12:39:00,80.7,63.6,30.20,NNE,26,2.0,3.0,56,0.00,,OVC055,0.00,VWS V14.01,2013-05-29 16:39:00,
2013-05-29 12:44:00,81.4,67.1,30.19,WSW,238,5.0,5.0,62,0.00,,OVC055,0.00,VWS V14.01,2013-05-29 16:44:00,
2013-05-29 12:49:00,81.6,66.4,30.20,North,360,0.0,5.0,60,0.00,,OVC055,0.00,VWS V14.01,2013-05-29 16:49:00,
2013-05-29 12:54:00,81.4,64.7,30.20,NNE,25,1.0,5.0,57,0.00,,OVC055,0.00,VWS V14.01,2013-05-29 16:54:00,
2013-05-29 12:59:00,81.4,64.7,30.19,NE,42,0.0,2.0,57,0.00,,OVC055,0.00,VWS V14.01,2013-05-29 16:59:00,
2013-05-29 13:00:00,81.4,64.7,30.19,NE,42,2.0,6.0,57,0.00,,OVC055,0.00,VWS V14.01,2013-05-29 17:00:00,
2013-05-29 13:04:00,80.9,64.8,30.19,NNE,14,3.0,6.0,58,0.00,,OVC055,0.00,VWS V14.01,2013-05-29 17:04:00,
2013-05-29 13:09:00,80.1,64.0,30.19,ENE,65,0.0,6.0,58,0.00,,OVC055,0.00,VWS V14.01,2013-05-29 17:09:00,
2013-05-29 13:14:00,79.2,65.1,30.19,SW,235,1.0,6.0,62,0.00,,OVC055,0.00,VWS V14.01,2013-05-29 17:14:00,
2013-05-29 13:19:00,79.3,64.2,30.19,South,185,1.0,7.0,60,0.00,,OVC055,0.00,VWS V14.01,2013-05-29 17:19:00,
2013-05-29 13:24:00,79.8,65.6,30.19,ENE,78,0.0,7.0,62,0.00,,OVC055,0.00,VWS V14.01,2013-05-29 17:24:00,
2013-05-29 13:29:00,79.7,64.6,30.19,SSW,200,0.0,0.0,60,0.00,,OVC055,0.00,VWS V14.01,2013-05-29 17:29:00,
2013-05-29 13:30:00,79.7,64.6,30.19,SSW,197,0.0,7.0,60,0.00,,OVC055,0.00,VWS V14.01,2013-05-29 17:30:00,
2013-05-29 13:34:00,79.4,63.8,30.18,NW,305,1.0,5.0,59,0.00,,OVC055,0.00,VWS V14.01,2013-05-29 17:34:00,
2013-05-29 13:39:00,79.4,64.8,30.18,North,349,1.0,5.0,61,0.00,,OVC055,0.00,VWS V14.01,2013-05-29 17:39:00,
2013-05-29 13:44:00,79.3,64.2,30.18,North,350,1.0,5.0,60,0.00,,OVC055,0.00,VWS V14.01,2013-05-29 17:44:00,
2013-05-29 13:49:00,79.6,65.0,30.18,NW,309,4.0,5.0,61,0.00,,OVC055,0.00,VWS V14.01,2013-05-29 17:49:00,
2013-05-29 13:54:00,79.4,63.3,30.18,ESE,113,1.0,5.0,58,0.00,,OVC055,0.00,VWS V14.01,2013-05-29 17:54:00,
2013-05-29 13:59:00,78.8,64.7,30.18,WSW,257,1.0,1.0,62,0.00,,OVC055,0.00,VWS V14.01,2013-05-29 17:59:00,
2013-05-29 14:00:00,78.9,64.8,30.18,WSW,257,1.0,5.0,62,0.00,,OVC055,0.00,VWS V14.01,2013-05-29 18:00:00,
2013-05-29 14:04:00,79.1,65.9,30.18,ESE,121,1.0,5.0,64,0.00,,OVC055,0.00,VWS V14.01,2013-05-29 18:04:00,
2013-05-29 14:09:00,79.9,65.3,30.18,East,88,2.0,5.0,61,0.00,,OVC055,0.00,VWS V14.01,2013-05-29 18:09:00,
2013-05-29 14:14:00,79.9,65.3,30.18,NNW,336,0.0,5.0,61,0.00,,OVC055,0.00,VWS V14.01,2013-05-29 18:14:00,
2013-05-29 14:19:00,80.0,66.3,30.18,SSE,167,0.0,5.0,63,0.00,,OVC055,0.00,VWS V14.01,2013-05-29 18:19:00,
2013-05-29 14:24:00,79.8,65.2,30.18,NW,319,0.0,5.0,61,0.00,,OVC055,0.00,VWS V14.01,2013-05-29 18:24:00,
2013-05-29 14:29:00,80.0,65.4,30.18,NW,325,0.0,1.0,61,0.00,,OVC055,0.00,VWS V14.01,2013-05-29 18:29:00,
2013-05-29 14:30:00,80.0,65.4,30.18,NW,325,1.0,5.0,61,0.00,,OVC055,0.00,VWS V14.01,2013-05-29 18:30:00,
2013-05-29 14:34:00,79.8,65.2,30.18,North,355,1.0,2.0,61,0.00,,OVC055,0.00,VWS V14.01,2013-05-29 18:34:00,
2013-05-29 14:39:00,80.3,65.6,30.17,North,11,1.0,4.0,61,0.00,,OVC055,0.00,VWS V14.01,2013-05-29 18:39:00,
2013-05-29 14:44:00,81.0,65.8,30.18,North,5,1.0,4.0,60,0.00,,OVC055,0.00,VWS V14.01,2013-05-29 18:44:00,
2013-05-29 14:49:00,81.1,66.4,30.17,NNE,15,4.0,6.0,61,0.00,,OVC055,0.00,VWS V14.01,2013-05-29 18:49:00,
2013-05-29 14:54:00,81.2,65.5,30.17,WSW,249,1.0,6.0,59,0.00,,OVC055,0.00,VWS V14.01,2013-05-29 18:54:00,
2013-05-29 14:59:00,81.1,65.4,30.17,North,5,1.0,6.0,59,0.00,,OVC055,0.00,VWS V14.01,2013-05-29 18:59:00,
2013-05-29 15:00:00,81.1,65.4,30.17,North,5,1.0,6.0,59,0.00,,OVC055,0.00,VWS V14.01,2013-05-29 19:00:00,
2013-05-29 15:04:00,81.5,65.3,30.17,NNE,26,1.0,5.0,58,0.00,,OVC055,0.00,VWS V14.01,2013-05-29 19:04:00,
2013-05-29 15:08:00,82.0,65.3,30.17,NNE,26,3.0,5.0,57,0.00,,OVC055,0.00,VWS V14.01,2013-05-29 19:08:00,
2013-05-29 15:13:00,81.2,66.0,30.17,North,355,4.0,5.0,60,0.00,,OVC055,0.00,VWS V14.01,2013-05-29 19:13:00,
2013-05-29 15:18:00,81.0,66.3,30.17,WNW,298,2.0,5.0,61,0.00,,OVC055,0.00,VWS V14.01,2013-05-29 19:18:00,
2013-05-29 15:23:00,81.0,64.8,30.16,WNW,292,1.0,5.0,58,0.00,,OVC055,0.00,VWS V14.01,2013-05-29 19:23:00,
2013-05-29 15:28:00,80.4,65.7,30.16,North,355,0.0,5.0,61,0.00,,OVC055,0.00,VWS V14.01,2013-05-29 19:28:00,
2013-05-29 15:30:00,80.4,65.7,30.16,North,355,0.0,5.0,61,0.00,,OVC055,0.00,VWS V14.01,2013-05-29 19:30:00,
2013-05-29 15:33:00,79.5,64.4,30.16,NNW,342,2.0,4.0,60,0.00,,OVC055,0.00,VWS V14.01,2013-05-29 19:33:00,
2013-05-29 15:38:00,79.6,65.0,30.16,NNW,342,2.0,4.0,61,0.00,,OVC055,0.00,VWS V14.01,2013-05-29 19:38:00,
2013-05-29 15:43:00,80.3,64.7,30.16,NW,325,0.0,4.0,59,0.00,,OVC055,0.00,VWS V14.01,2013-05-29 19:43:00,
2013-05-29 15:48:00,81.2,66.0,30.16,NNE,30,1.0,4.0,60,0.00,,OVC055,0.00,VWS V14.01,2013-05-29 19:48:00,
2013-05-29 15:53:00,81.5,65.8,30.16,NE,56,0.0,4.0,59,0.00,,OVC055,0.00,VWS V14.01,2013-05-29 19:53:00,
2013-05-29 15:58:00,81.3,65.6,30.16,NW,326,0.0,4.0,59,0.00,,OVC055,0.00,VWS V14.01,2013-05-29 19:58:00,
2013-05-29 16:00:00,81.3,65.6,30.16,NW,325,1.0,4.0,59,0.00,,OVC055,0.00,VWS V14.01,2013-05-29 20:00:00,
2013-05-29 16:03:00,80.7,64.1,30.15,West,265,1.0,3.0,57,0.00,,OVC055,0.00,VWS V14.01,2013-05-29 20:03:00,
2013-05-29 16:08:00,80.1,65.4,30.15,NNW,343,2.0,4.0,61,0.00,,OVC055,0.00,VWS V14.01,2013-05-29 20:08:00,
2013-05-29 16:13:00,80.5,66.3,30.15,NW,307,4.0,4.0,62,0.00,,OVC055,0.00,VWS V14.01,2013-05-29 20:13:00,
2013-05-29 16:18:00,81.0,66.8,30.15,NNW,346,1.0,4.0,62,0.00,,OVC055,0.00,VWS V14.01,2013-05-29 20:18:00,
2013-05-29 16:23:00,81.6,65.9,30.15,North,355,2.0,4.0,59,0.00,,OVC055,0.00,VWS V14.01,2013-05-29 20:23:00,
2013-05-29 16:28:00,81.5,66.8,30.14,NW,319,0.0,4.0,61,0.00,,OVC055,0.00,VWS V14.01,2013-05-29 20:28:00,
2013-05-29 16:30:00,81.5,66.3,30.14,NW,319,0.0,4.0,60,0.00,,OVC055,0.00,VWS V14.01,2013-05-29 20:30:00,
2013-05-29 16:33:00,81.5,66.3,30.15,NW,312,1.0,2.0,60,0.00,,OVC055,0.00,VWS V14.01,2013-05-29 20:33:00,
2013-05-29 16:38:00,81.8,64.1,30.14,NW,323,3.0,9.0,55,0.00,,OVC055,0.00,VWS V14.01,2013-05-29 20:38:00,
2013-05-29 16:43:00,81.4,64.7,30.14,NNE,17,2.0,9.0,57,0.00,,OVC055,0.00,VWS V14.01,2013-05-29 20:43:00,
2013-05-29 16:48:00,81.3,64.1,30.14,North,11,1.0,9.0,56,0.00,,OVC055,0.00,VWS V14.01,2013-05-29 20:48:00,
2013-05-29 16:53:00,80.8,63.7,30.14,SSW,213,0.0,9.0,56,0.00,,OVC055,0.00,VWS V14.01,2013-05-29 20:53:00,
2013-05-29 16:58:00,80.0,63.9,30.14,NNW,334,0.0,9.0,58,0.00,,OVC055,0.00,VWS V14.01,2013-05-29 20:58:00,
2013-05-29 17:00:00,79.9,63.8,30.14,NNW,334,2.0,9.0,58,0.00,,OVC055,0.00,VWS V14.01,2013-05-29 21:00:00,
2013-05-29 17:03:00,78.9,64.3,30.14,NNW,334,0.0,2.0,61,0.00,,OVC055,0.00,VWS V14.01,2013-05-29 21:03:00,
2013-05-29 17:08:00,78.5,64.9,30.14,NNW,332,1.0,2.0,63,0.00,,OVC055,0.00,VWS V14.01,2013-05-29 21:08:00,
2013-05-29 17:13:00,79.3,62.8,30.14,NW,324,1.0,3.0,57,0.00,,OVC055,0.00,VWS V14.01,2013-05-29 21:13:00,
2013-05-29 17:18:00,79.9,63.8,30.14,NNE,25,2.0,5.0,58,0.00,,OVC055,0.00,VWS V14.01,2013-05-29 21:18:00,
2013-05-29 17:23:00,80.0,63.4,30.14,NNE,22,2.0,5.0,57,0.00,,OVC055,0.00,VWS V14.01,2013-05-29 21:23:00,
2013-05-29 17:28:00,79.9,62.8,30.14,NW,323,2.0,5.0,56,0.00,,OVC055,0.00,VWS V14.01,2013-05-29 21:28:00,
2013-05-29 17:30:00,79.9,62.8,30.14,NW,304,2.0,5.0,56,0.00,,OVC055,0.00,VWS V14.01,2013-05-29 21:30:00,
2013-05-29 17:33:00,80.2,64.1,30.14,NW,321,0.0,4.0,58,0.00,,OVC055,0.00,VWS V14.01,2013-05-29 21:33:00,
2013-05-29 17:38:00,80.6,63.0,30.14,NNW,346,2.0,4.0,55,0.00,,OVC055,0.00,VWS V14.01,2013-05-29 21:38:00,
2013-05-29 17:43:00,80.4,63.8,30.14,WSW,242,2.0,4.0,57,0.00,,OVC055,0.00,VWS V14.01,2013-05-29 21:43:00,
2013-05-29 17:48:00,80.0,63.4,30.14,North,355,1.0,5.0,57,0.00,,OVC055,0.00,VWS V14.01,2013-05-29 21:48:00,
2013-05-29 17:53:00,79.8,64.2,30.14,NW,311,0.0,5.0,59,0.00,,OVC055,0.00,VWS V14.01,2013-05-29 21:53:00,
2013-05-29 17:58:00,79.7,62.6,30.14,North,355,0.0,5.0,56,0.00,,OVC055,0.00,VWS V14.01,2013-05-29 21:58:00,
2013-05-29 18:00:00,79.7,62.6,30.14,North,355,2.0,5.0,56,0.00,,OVC055,0.00,VWS V14.01,2013-05-29 22:00:00,
2013-05-29 18:03:00,79.6,63.5,30.14,NNW,347,0.0,4.0,58,0.00,,OVC055,0.00,VWS V14.01,2013-05-29 22:03:00,
2013-05-29 18:08:00,79.5,63.4,30.14,NNW,347,0.0,4.0,58,0.00,,OVC055,0.00,VWS V14.01,2013-05-29 22:08:00,
2013-05-29 18:13:00,79.3,63.7,30.14,ESE,106,0.0,4.0,59,0.00,,OVC055,0.00,VWS V14.01,2013-05-29 22:13:00,
2013-05-29 18:18:00,79.0,63.0,30.14,North,355,0.0,6.0,58,0.00,,OVC055,0.00,VWS V14.01,2013-05-29 22:18:00,
2013-05-29 18:23:00,79.0,63.9,30.14,North,5,1.0,6.0,60,0.00,,OVC055,0.00,VWS V14.01,2013-05-29 22:23:00,
2013-05-29 18:28:00,78.8,64.2,30.14,NNW,330,0.0,6.0,61,0.00,,OVC055,0.00,VWS V14.01,2013-05-29 22:28:00,
2013-05-29 18:30:00,78.8,64.2,30.14,NNW,330,0.0,6.0,61,0.00,,OVC055,0.00,VWS V14.01,2013-05-29 22:30:00,
2013-05-29 18:33:00,78.3,62.8,30.14,NW,323,0.0,3.0,59,0.00,,OVC055,0.00,VWS V14.01,2013-05-29 22:33:00,
2013-05-29 18:38:00,77.6,62.6,30.14,West,276,2.0,3.0,60,0.00,,OVC055,0.00,VWS V14.01,2013-05-29 22:38:00,
2013-05-29 18:43:00,77.1,63.1,30.14,West,278,1.0,3.0,62,0.00,,OVC055,0.00,VWS V14.01,2013-05-29 22:43:00,
2013-05-29 18:48:00,76.6,63.1,30.14,SW,230,2.0,4.0,63,0.00,,OVC055,0.00,VWS V14.01,2013-05-29 22:48:00,
2013-05-29 18:53:00,76.1,63.0,30.15,NW,322,0.0,4.0,64,0.00,,OVC055,0.00,VWS V14.01,2013-05-29 22:53:00,
2013-05-29 18:58:00,75.6,62.6,30.15,NW,323,1.0,4.0,64,0.00,,OVC055,0.00,VWS V14.01,2013-05-29 22:58:00,
2013-05-29 19:00:00,75.6,62.6,30.15,NW,323,2.0,4.0,64,0.00,,OVC055,0.00,VWS V14.01,2013-05-29 23:00:00,
2013-05-29 19:03:00,75.3,63.2,30.15,NNW,330,0.0,2.0,66,0.00,,OVC055,0.00,VWS V14.01,2013-05-29 23:03:00,
2013-05-29 19:08:00,74.9,62.3,30.15,WNW,285,0.0,4.0,65,0.00,,OVC055,0.00,VWS V14.01,2013-05-29 23:08:00,
2013-05-29 19:13:00,74.5,62.4,30.15,WNW,298,1.0,4.0,66,0.00,,OVC055,0.00,VWS V14.01,2013-05-29 23:13:00,
2013-05-29 19:18:00,74.0,62.4,30.15,WNW,298,0.0,4.0,67,0.00,,OVC055,0.00,VWS V14.01,2013-05-29 23:18:00,
2013-05-29 19:23:00,73.7,62.5,30.15,WNW,298,0.0,4.0,68,0.00,,OVC055,0.00,VWS V14.01,2013-05-29 23:23:00,
2013-05-29 19:28:00,73.4,62.6,30.15,WNW,298,0.0,4.0,69,0.00,,OVC055,0.00,VWS V14.01,2013-05-29 23:28:00,
2013-05-29 19:30:00,73.4,62.6,30.15,WNW,298,0.0,4.0,69,0.00,,OVC055,0.00,VWS V14.01,2013-05-29 23:30:00,
2013-05-29 19:33:00,73.1,62.7,30.15,WNW,298,0.0,1.0,70,0.00,,OVC055,0.00,VWS V14.01,2013-05-29 23:33:00,
2013-05-29 19:38:00,73.0,63.0,30.15,NW,326,0.0,3.0,71,0.00,,OVC055,0.00,VWS V14.01,2013-05-29 23:38:00,
2013-05-29 19:43:00,72.7,62.8,30.15,NW,326,1.0,3.0,71,0.00,,OVC055,0.00,VWS V14.01,2013-05-29 23:43:00,
2013-05-29 19:48:00,72.3,62.8,30.15,NNW,327,0.0,3.0,72,0.00,,OVC055,0.00,VWS V14.01,2013-05-29 23:48:00,
2013-05-29 19:53:00,71.9,62.8,30.15,NNW,327,1.0,3.0,73,0.00,,OVC055,0.00,VWS V14.01,2013-05-29 23:53:00,
2013-05-29 19:58:00,71.5,62.0,30.15,NNW,327,0.0,3.0,72,0.00,,OVC055,0.00,VWS V14.01,2013-05-29 23:58:00,
2013-05-29 20:00:00,71.5,62.4,30.15,NNW,327,2.0,3.0,73,0.00,,OVC055,0.00,VWS V14.01,2013-05-30 00:00:00,
2013-05-29 20:03:00,71.1,62.0,30.15,NNW,327,0.0,2.0,73,0.00,,OVC055,0.00,VWS V14.01,2013-05-30 00:03:00,
2013-05-29 20:08:00,70.6,62.3,30.15,NNW,327,0.0,2.0,75,0.00,,OVC055,0.00,VWS V14.01,2013-05-30 00:08:00,
2013-05-29 20:13:00,70.1,62.2,30.15,NNW,327,0.0,2.0,76,0.00,,OVC055,0.00,VWS V14.01,2013-05-30 00:13:00,
2013-05-29 20:18:00,69.7,61.8,30.15,NW,326,0.0,2.0,76,0.00,,OVC055,0.00,VWS V14.01,2013-05-30 00:18:00,
2013-05-29 20:23:00,69.4,61.9,30.15,NW,326,0.0,2.0,77,0.00,,OVC055,0.00,VWS V14.01,2013-05-30 00:23:00,
2013-05-29 20:28:00,69.2,61.7,30.15,NW,326,0.0,2.0,77,0.00,,OVC055,0.00,VWS V14.01,2013-05-30 00:28:00,
2013-05-29 20:30:00,69.2,61.3,30.15,NW,326,0.0,2.0,76,0.00,,OVC055,0.00,VWS V14.01,2013-05-30 00:30:00,
2013-05-29 20:33:00,69.1,61.2,30.15,NW,326,0.0,0.0,76,0.00,,OVC055,0.00,VWS V14.01,2013-05-30 00:33:00,
2013-05-29 20:38:00,68.9,61.0,30.15,NW,326,0.0,0.0,76,0.00,,OVC055,0.00,VWS V14.01,2013-05-30 00:38:00,
2013-05-29 20:43:00,68.7,60.5,30.16,NW,326,0.0,1.0,75,0.00,,OVC055,0.00,VWS V14.01,2013-05-30 00:43:00,
2013-05-29 20:48:00,68.4,60.5,30.16,NW,326,0.0,1.0,76,0.00,,OVC055,0.00,VWS V14.01,2013-05-30 00:48:00,
2013-05-29 20:53:00,68.2,60.7,30.16,NW,326,0.0,1.0,77,0.00,,OVC055,0.00,VWS V14.01,2013-05-30 00:53:00,
2013-05-29 20:58:00,68.0,60.5,30.16,NW,326,0.0,1.0,77,0.00,,OVC055,0.00,VWS V14.01,2013-05-30 00:58:00,
2013-05-29 21:00:00,67.9,60.4,30.16,NW,326,0.0,1.0,77,0.00,,OVC055,0.00,VWS V14.01,2013-05-30 01:00:00,
2013-05-29 21:03:00,67.8,60.7,30.16,NW,326,0.0,0.0,78,0.00,,OVC055,0.00,VWS V14.01,2013-05-30 01:03:00,
2013-05-29 21:08:00,67.8,60.7,30.16,NW,326,0.0,0.0,78,0.00,,OVC055,0.00,VWS V14.01,2013-05-30 01:08:00,
2013-05-29 21:13:00,67.8,60.7,30.16,NW,326,0.0,0.0,78,0.00,,OVC055,0.00,VWS V14.01,2013-05-30 01:13:00,
2013-05-29 21:18:00,67.6,60.5,30.16,NW,326,0.0,0.0,78,0.00,,OVC055,0.00,VWS V14.01,2013-05-30 01:18:00,
2013-05-29 21:23:00,67.5,60.4,30.17,NW,326,0.0,0.0,78,0.00,,OVC055,0.00,VWS V14.01,2013-05-30 01:23:00,
2013-05-29 21:28:00,67.1,60.7,30.17,NW,326,0.0,0.0,80,0.00,,OVC055,0.00,VWS V14.01,2013-05-30 01:28:00,
2013-05-29 21:30:00,67.0,60.6,30.17,NW,326,0.0,0.0,80,0.00,,OVC055,0.00,VWS V14.01,2013-05-30 01:30:00,
2013-05-29 21:33:00,66.5,60.5,30.17,NW,326,0.0,0.0,81,0.00,,OVC055,0.00,VWS V14.01,2013-05-30 01:33:00,
2013-05-29 21:38:00,66.1,60.5,30.17,NW,326,0.0,0.0,82,0.00,,OVC055,0.00,VWS V14.01,2013-05-30 01:38:00,
2013-05-29 21:43:00,66.0,61.0,30.17,NW,326,0.0,0.0,84,0.00,,OVC055,0.00,VWS V14.01,2013-05-30 01:43:00,
2013-05-29 21:48:00,65.8,60.8,30.17,NW,326,0.0,0.0,84,0.00,,OVC055,0.00,VWS V14.01,2013-05-30 01:48:00,
2013-05-29 21:53:00,65.3,60.7,30.18,NW,326,0.0,0.0,85,0.00,,OVC055,0.00,VWS V14.01,2013-05-30 01:53:00,
2013-05-29 21:58:00,64.7,60.4,30.18,NW,326,0.0,0.0,86,0.00,,OVC055,0.00,VWS V14.01,2013-05-30 01:58:00,
2013-05-29 22:00:00,64.6,60.3,30.18,NW,326,0.0,0.0,86,0.00,,OVC055,0.00,VWS V14.01,2013-05-30 02:00:00,
2013-05-29 22:03:00,64.3,60.3,30.18,NW,326,0.0,0.0,87,0.00,,OVC055,0.00,VWS V14.01,2013-05-30 02:03:00,
2013-05-29 22:08:00,64.1,60.5,30.18,NW,326,0.0,0.0,88,0.00,,OVC055,0.00,VWS V14.01,2013-05-30 02:08:00,
2013-05-29 22:13:00,63.9,60.6,30.18,NW,326,0.0,0.0,89,0.00,,OVC055,0.00,VWS V14.01,2013-05-30 02:13:00,
2013-05-29 22:18:00,63.8,60.5,30.19,NW,326,0.0,0.0,89,0.00,,OVC055,0.00,VWS V14.01,2013-05-30 02:18:00,
2013-05-29 22:23:00,63.6,60.3,30.19,NW,326,0.0,0.0,89,0.00,,OVC055,0.00,VWS V14.01,2013-05-30 02:23:00,
2013-05-29 22:28:00,63.3,60.3,30.19,NW,326,0.0,0.0,90,0.00,,OVC055,0.00,VWS V14.01,2013-05-30 02:28:00,
2013-05-29 22:30:00,63.3,60.3,30.19,NW,326,0.0,0.0,90,0.00,,OVC055,0.00,VWS V14.01,2013-05-30 02:30:00,
2013-05-29 22:33:00,63.0,60.3,30.19,NW,326,0.0,0.0,91,0.00,,OVC055,0.00,VWS V14.01,2013-05-30 02:33:00,
2013-05-29 22:38:00,62.8,60.1,30.19,NW,326,0.0,0.0,91,0.00,,OVC055,0.00,VWS V14.01,2013-05-30 02:38:00,
2013-05-29 22:43:00,62.5,60.2,30.20,NW,326,0.0,0.0,92,0.00,,OVC055,0.00,VWS V14.01,2013-05-30 02:43:00,
2013-05-29 22:48:00,62.3,60.0,30.19,NW,326,0.0,0.0,92,0.00,,OVC055,0.00,VWS V14.01,2013-05-30 02:48:00,
2013-05-29 22:53:00,62.1,59.8,30.20,NW,326,0.0,0.0,92,0.00,,OVC055,0.00,VWS V14.01,2013-05-30 02:53:00,
2013-05-29 22:58:00,61.9,59.9,30.20,NW,326,0.0,0.0,93,0.00,,OVC055,0.00,VWS V14.01,2013-05-30 02:58:00,
2013-05-29 23:00:00,61.8,59.8,30.20,NW,326,0.0,0.0,93,0.00,,OVC055,0.00,VWS V14.01,2013-05-30 03:00:00,
2013-05-29 23:03:00,61.7,59.7,30.20,NW,326,0.0,0.0,93,0.00,,OVC055,0.00,VWS V14.01,2013-05-30 03:03:00,
2013-05-29 23:07:00,61.6,59.6,30.20,NW,326,0.0,0.0,93,0.00,,OVC055,0.00,VWS V14.01,2013-05-30 03:07:00,
2013-05-29 23:12:00,61.5,59.8,30.20,NW,326,0.0,0.0,94,0.00,,OVC055,0.00,VWS V14.01,2013-05-30 03:12:00,
2013-05-29 23:17:00,61.3,59.6,30.20,NW,326,0.0,0.0,94,0.00,,OVC055,0.00,VWS V14.01,2013-05-30 03:17:00,
2013-05-29 23:22:00,61.2,59.5,30.19,NW,326,0.0,0.0,94,0.00,,OVC055,0.00,VWS V14.01,2013-05-30 03:22:00,
2013-05-29 23:27:00,61.0,59.6,30.20,NW,326,0.0,0.0,95,0.00,,OVC055,0.00,VWS V14.01,2013-05-30 03:27:00,
2013-05-29 23:30:00,61.0,59.6,30.20,NW,326,0.0,0.0,95,0.00,,OVC055,0.00,VWS V14.01,2013-05-30 03:30:00,
2013-05-29 23:32:00,60.9,59.5,30.20,NW,326,0.0,0.0,95,0.00,,OVC055,0.00,VWS V14.01,2013-05-30 03:32:00,
2013-05-29 23:37:00,60.7,59.3,30.20,NW,326,0.0,0.0,95,0.00,,OVC055,0.00,VWS V14.01,2013-05-30 03:37:00,
2013-05-29 23:42:00,60.6,59.2,30.20,NW,326,0.0,0.0,95,0.00,,OVC055,0.00,VWS V14.01,2013-05-30 03:42:00,
2013-05-29 23:47:00,60.5,59.4,30.20,NW,326,0.0,0.0,96,0.00,,OVC055,0.00,VWS V14.01,2013-05-30 03:47:00,
2013-05-29 23:52:00,60.4,59.3,30.20,NW,326,0.0,0.0,96,0.00,,OVC055,0.00,VWS V14.01,2013-05-30 03:52:00,
2013-05-29 23:57:00,60.4,59.3,30.20,NW,326,0.0,0.0,96,0.00,,OVC055,0.00,VWS V14.01,2013-05-30 03:57:00,